createdAt,value
2022-09-27T21:27:55.819Z,99258.53
2022-09-27T21:30:25.130Z,99255.91
2022-09-27T21:32:57.758Z,99258.63
2022-09-27T21:35:26.005Z,99256.09
2022-09-27T21:37:57.406Z,99256.63
2022-09-27T21:40:25.535Z,99264.59
2022-09-27T21:42:57.641Z,99270.88
2022-09-27T21:45:26.381Z,99271.19
2022-09-27T21:47:54.464Z,99283.22
2022-09-27T21:50:22.499Z,99279.53
2022-09-27T21:52:56.150Z,99283.19
2022-09-27T21:55:26.541Z,99276.16
2022-09-27T21:57:54.622Z,99282.69
2022-09-27T22:00:22.929Z,99289.75
2022-09-27T22:02:51.316Z,99298.88
2022-09-27T22:05:20.750Z,99290.13
2022-09-27T22:07:48.806Z,99287.81
2022-09-27T22:10:17.273Z,99290.81
2022-09-27T22:12:45.370Z,99295.63
2022-09-27T22:15:13.529Z,99289.53
2022-09-27T22:17:41.810Z,99293.63
2022-09-27T22:20:10.036Z,99290.97
2022-09-27T22:22:38.060Z,99292.66
2022-09-27T22:25:06.606Z,99291.00
2022-09-27T22:27:34.680Z,99278.44
2022-09-27T22:30:02.820Z,99279.94
2022-09-27T22:32:31.036Z,99279.56
2022-09-27T22:34:59.180Z,99287.03
2022-09-27T22:37:27.261Z,99287.22
2022-09-27T22:39:56.145Z,99283.66
2022-09-27T22:42:24.229Z,99278.19
2022-09-27T22:44:52.347Z,99281.44
2022-09-27T22:47:20.648Z,99284.28
2022-09-27T22:49:48.700Z,99281.19
2022-09-27T22:52:16.880Z,99280.44
2022-09-27T22:54:45.180Z,99284.19
2022-09-27T22:57:14.242Z,99276.53
2022-09-27T22:59:42.338Z,99270.28
2022-09-27T23:02:10.705Z,99263.44
2022-09-27T23:04:39.125Z,99262.91
2022-09-27T23:07:07.172Z,99269.16
2022-09-27T23:09:36.023Z,99268.75
2022-09-27T23:12:04.279Z,99275.81
2022-09-27T23:14:32.661Z,99272.47
2022-09-27T23:17:01.928Z,99272.50
2022-09-27T23:19:30.675Z,99272.84
2022-09-27T23:21:58.904Z,99288.84
2022-09-27T23:24:27.254Z,99289.19
2022-09-27T23:27:14.145Z,99285.28
2022-09-27T23:29:44.017Z,99283.59
2022-09-27T23:32:13.045Z,99280.91
2022-09-27T23:34:42.265Z,99289.38
2022-09-27T23:37:10.646Z,99288.03
2022-09-27T23:39:39.548Z,99296.25
2022-09-27T23:42:07.505Z,99299.03
2022-09-27T23:44:35.805Z,99291.66
2022-09-27T23:47:04.706Z,99289.22
2022-09-27T23:49:33.169Z,99292.63
2022-09-27T23:52:01.868Z,99291.06
2022-09-27T23:54:31.428Z,99288.44
2022-09-27T23:57:00.091Z,99283.41
2022-09-27T23:59:28.985Z,99288.91
